Time;durP1;ratioP1;P1;durP2;ratioP2;P2;SDS_P1;SDS_P2;PMS_P1;PMS_P2;Temp;Humidity;BMP_temperature;BMP_pressure;BME280_temperature;BME280_humidity;BME280_pressure;Samples;Min_cycle;Max_cycle;Signal;HPM_P1;HPM_P2
2023/10/06 00:00:42;;;;;;;10.13;5.65;;;;;;;12.03;100.00;102441.25;5056278;28;20077;-81
2023/10/06 00:03:11;;;;;;;9.75;5.38;;;;;;;12.02;100.00;102439.53;5071428;28;20550;-81
2023/10/06 00:05:44;;;;;;;11.90;6.10;;;;;;;12.03;100.00;102435.13;5041480;28;20037;-82
2023/10/06 00:08:11;;;;;;;12.15;5.80;;;;;;;11.96;100.00;102433.72;5047562;28;20083;-82
2023/10/06 00:10:46;;;;;;;11.85;6.22;;;;;;;11.98;100.00;102445.03;5038772;28;20024;-82
2023/10/06 00:13:13;;;;;;;8.80;5.78;;;;;;;12.01;100.00;102444.88;5068090;28;20032;-81
2023/10/06 00:15:38;;;;;;;14.00;5.40;;;;;;;11.99;100.00;102442.31;5064135;28;20442;-82
2023/10/06 00:18:07;;;;;;;10.93;5.30;;;;;;;11.93;100.00;102446.13;5065481;28;20100;-82
2023/10/06 00:20:56;;;;;;;10.57;5.60;;;;;;;11.93;100.00;102440.88;5049901;28;20035;-82
2023/10/06 00:23:22;;;;;;;12.25;5.80;;;;;;;11.97;100.00;102448.63;5038543;28;20028;-81
2023/10/06 00:25:53;;;;;;;12.35;6.32;;;;;;;11.96;100.00;102452.19;5054642;28;20029;-81
2023/10/06 00:28:25;;;;;;;11.77;5.78;;;;;;;11.91;100.00;102441.88;5031128;28;20103;-82
2023/10/06 00:30:56;;;;;;;10.68;5.38;;;;;;;11.86;100.00;102436.84;5050871;28;20384;-83
2023/10/06 00:33:32;;;;;;;11.00;6.15;;;;;;;11.89;100.00;102447.25;5052861;28;20025;-82
2023/10/06 00:35:57;;;;;;;11.48;6.07;;;;;;;11.90;100.00;102433.13;5050381;28;20037;-82
2023/10/06 00:38:23;;;;;;;11.63;5.72;;;;;;;11.88;100.00;102442.91;5071449;28;20024;-81
2023/10/06 00:40:51;;;;;;;11.20;5.82;;;;;;;11.89;100.00;102434.06;5046976;28;20038;-81
2023/10/06 00:43:39;;;;;;;14.63;6.13;;;;;;;11.89;100.00;102438.47;5053825;28;20412;-81
2023/10/06 00:46:07;;;;;;;12.23;5.88;;;;;;;11.86;100.00;102438.66;5059186;28;20538;-81
2023/10/06 00:48:45;;;;;;;11.68;5.47;;;;;;;11.84;100.00;102430.81;5049022;28;20029;-82
2023/10/06 00:51:25;;;;;;;10.27;5.63;;;;;;;11.84;100.00;102428.19;5051415;28;20036;-82
2023/10/06 00:53:53;;;;;;;15.52;6.10;;;;;;;11.81;100.00;102436.25;5064289;28;20032;-81
2023/10/06 00:56:25;;;;;;;12.73;6.22;;;;;;;11.79;100.00;102432.84;5049058;28;20060;-81
2023/10/06 00:58:51;;;;;;;12.98;5.80;;;;;;;11.78;100.00;102438.22;5047690;28;20025;-81
2023/10/06 01:01:17;;;;;;;11.07;6.05;;;;;;;11.77;100.00;102431.19;5042289;28;20037;-81
2023/10/06 01:03:44;;;;;;;9.48;5.47;;;;;;;11.75;100.00;102423.38;5061337;28;20358;-80
2023/10/06 01:06:17;;;;;;;12.77;6.07;;;;;;;11.68;100.00;102414.09;5062723;28;20098;-79
2023/10/06 01:08:52;;;;;;;14.80;6.22;;;;;;;11.66;100.00;102415.13;5051996;28;20021;-80
2023/10/06 01:11:26;;;;;;;11.27;5.95;;;;;;;11.68;100.00;102418.50;5067122;28;20113;-81
2023/10/06 01:13:59;;;;;;;11.35;5.63;;;;;;;11.67;100.00;102412.41;5070748;28;20078;-81
2023/10/06 01:16:31;;;;;;;10.10;5.80;;;;;;;11.69;100.00;102410.53;5053156;28;20044;-81
2023/10/06 01:21:46;;;;;;;15.77;6.07;;;;;;;11.63;100.00;102395.03;5019059;28;20041;-82
2023/10/06 01:24:13;;;;;;;10.85;5.55;;;;;;;11.64;100.00;102396.75;5057399;28;20025;-82
2023/10/06 01:26:44;;;;;;;10.45;6.03;;;;;;;11.63;100.00;102395.03;5061757;28;20538;-81
2023/10/06 01:29:10;;;;;;;10.82;5.60;;;;;;;11.65;100.00;102398.44;5062228;28;20047;-81
2023/10/06 01:31:41;;;;;;;11.52;6.00;;;;;;;11.64;100.00;102396.75;5056409;28;20028;-81
2023/10/06 01:34:12;;;;;;;12.65;5.88;;;;;;;11.64;100.00;102411.72;5064776;28;20116;-81
2023/10/06 01:36:38;;;;;;;13.05;6.82;;;;;;;11.64;100.00;102404.66;5048017;28;20041;-81
2023/10/06 01:39:05;;;;;;;11.63;5.60;;;;;;;11.65;100.00;102402.88;5029971;28;20087;-81
2023/10/06 01:41:34;;;;;;;14.88;6.55;;;;;;;11.65;100.00;102398.44;5041427;28;20079;-81
2023/10/06 01:44:01;;;;;;;10.68;6.25;;;;;;;11.62;100.00;102398.59;5068817;28;20380;-81
2023/10/06 01:46:27;;;;;;;9.82;5.90;;;;;;;11.61;100.00;102389.84;5068266;28;20032;-81
2023/10/06 01:48:53;;;;;;;11.68;6.10;;;;;;;11.59;100.00;102386.41;5069163;28;20028;-80
2023/10/06 01:51:19;;;;;;;14.35;6.53;;;;;;;11.59;100.00;102389.06;5066767;28;20024;-80
2023/10/06 01:53:44;;;;;;;13.07;5.95;;;;;;;11.59;100.00;102388.19;5033470;28;20147;-81
2023/10/06 01:56:10;;;;;;;12.48;6.53;;;;;;;11.57;100.00;102384.78;5048590;28;20061;-81
2023/10/06 01:58:36;;;;;;;11.00;6.03;;;;;;;11.53;100.00;102383.25;5053875;28;20050;-82
2023/10/06 02:01:05;;;;;;;8.18;5.72;;;;;;;11.55;100.00;102371.69;5069101;28;20443;-81
2023/10/06 02:03:37;;;;;;;11.15;5.85;;;;;;;11.53;100.00;102372.72;5069769;28;20523;-81
2023/10/06 02:06:03;;;;;;;13.98;6.32;;;;;;;11.51;100.00;102369.31;5067694;28;20029;-82
2023/10/06 02:08:30;;;;;;;13.20;6.53;;;;;;;11.49;100.00;102376.44;5047466;28;20029;-82
2023/10/06 02:10:55;;;;;;;12.05;6.60;;;;;;;11.49;100.00;102373.81;5057325;28;20484;-82
2023/10/06 02:13:21;;;;;;;14.82;6.53;;;;;;;11.47;100.00;102380.94;5069301;28;20028;-81
2023/10/06 02:15:56;;;;;;;13.65;6.30;;;;;;;11.48;100.00;102385.28;5067111;28;20051;-81
2023/10/06 02:18:22;;;;;;;10.48;6.05;;;;;;;11.52;100.00;102387.69;5030080;28;20036;-82
2023/10/06 02:20:48;;;;;;;15.60;6.43;;;;;;;11.49;100.00;102393.13;5029331;28;20401;-81
2023/10/06 02:23:14;;;;;;;12.27;6.13;;;;;;;11.49;100.00;102379.09;5030095;28;20026;-81
2023/10/06 02:25:39;;;;;;;11.48;6.32;;;;;;;11.47;100.00;102381.81;5045419;28;20030;-82
2023/10/06 02:28:05;;;;;;;11.70;6.22;;;;;;;11.47;100.00;102378.31;5051974;28;20385;-81
2023/10/06 02:30:37;;;;;;;12.48;6.60;;;;;;;11.45;100.00;102380.19;5037833;28;20021;-82
2023/10/06 02:33:06;;;;;;;13.15;6.10;;;;;;;11.44;100.00;102384.59;5029672;28;20017;-82
2023/10/06 02:35:34;;;;;;;16.73;6.25;;;;;;;11.44;100.00;102381.13;5046456;28;20025;-81
2023/10/06 02:38:05;;;;;;;12.65;6.80;;;;;;;11.42;100.00;102382.97;5066345;28;20520;-82
2023/10/06 02:40:36;;;;;;;12.68;6.13;;;;;;;11.43;100.00;102385.53;5069086;28;20031;-81
2023/10/06 02:43:09;;;;;;;9.00;6.35;;;;;;;11.43;100.00;102376.78;5069732;28;20099;-82
2023/10/06 02:45:40;;;;;;;7.88;6.00;;;;;;;11.44;100.00;102366.16;5067435;28;20036;-81
2023/10/06 02:48:14;;;;;;;10.02;5.97;;;;;;;11.38;100.00;102373.53;5045292;28;20024;-81
2023/10/06 02:50:49;;;;;;;14.70;6.70;;;;;;;11.38;100.00;102368.28;5049588;28;20081;-81
2023/10/06 02:53:15;;;;;;;13.35;6.85;;;;;;;11.33;100.00;102376.41;5069223;28;20070;-81
2023/10/06 02:55:43;;;;;;;15.25;6.45;;;;;;;11.37;100.00;102377.09;5052562;28;20057;-81
2023/10/06 02:58:26;;;;;;;11.05;6.30;;;;;;;11.31;100.00;102378.28;5052655;28;20196;-82
2023/10/06 03:00:51;;;;;;;12.65;6.43;;;;;;;11.29;100.00;102367.81;5054360;28;20473;-81
2023/10/06 03:03:22;;;;;;;12.60;6.82;;;;;;;11.32;100.00;102365.97;5034886;28;20029;-81
2023/10/06 03:05:51;;;;;;;10.73;6.57;;;;;;;11.27;100.00;102367.06;5063756;28;20472;-82
2023/10/06 03:08:20;;;;;;;11.18;6.05;;;;;;;11.26;100.00;102361.88;5067720;28;20436;-81
2023/10/06 03:10:48;;;;;;;13.80;6.47;;;;;;;11.25;100.00;102357.53;5064707;28;20093;-82
2023/10/06 03:13:32;;;;;;;11.15;6.10;;;;;;;11.24;100.00;102356.69;5071905;28;20043;-82
2023/10/06 03:15:59;;;;;;;15.35;6.75;;;;;;;11.22;100.00;102353.28;5064127;28;20497;-82
2023/10/06 03:18:25;;;;;;;12.48;5.80;;;;;;;11.23;100.00;102354.97;5051809;28;20032;-82
2023/10/06 03:21:04;;;;;;;15.10;6.20;;;;;;;11.23;100.00;102354.97;5053240;28;20075;-82
2023/10/06 03:23:32;;;;;;;12.65;6.05;;;;;;;11.25;100.00;102342.56;5062724;28;20029;-80
2023/10/06 03:25:57;;;;;;;14.43;6.03;;;;;;;11.22;100.00;102348.00;5072712;28;20051;-81
2023/10/06 03:28:49;;;;;;;15.05;6.50;;;;;;;11.21;100.00;102346.31;5070937;28;20447;-81
2023/10/06 03:33:44;;;;;;;11.38;5.78;;;;;;;11.18;100.00;102354.34;5072638;28;20032;-82
2023/10/06 03:36:09;;;;;;;14.27;6.15;;;;;;;11.16;100.00;102358.84;5066902;28;20542;-81
2023/10/06 03:38:42;;;;;;;12.70;6.15;;;;;;;11.16;100.00;102358.84;5038195;28;20029;-82
2023/10/06 03:41:24;;;;;;;11.38;6.20;;;;;;;11.18;100.00;102367.50;5070217;28;20032;-81
2023/10/06 03:43:55;;;;;;;9.80;5.57;;;;;;;11.17;100.00;102355.28;5055215;28;20032;-81
2023/10/06 03:46:22;;;;;;;12.05;5.82;;;;;;;11.16;100.00;102353.56;5054941;28;20052;-82
2023/10/06 03:48:48;;;;;;;9.02;5.40;;;;;;;11.17;100.00;102360.53;5054469;28;20040;-81
2023/10/06 03:51:15;;;;;;;11.10;5.90;;;;;;;11.15;100.00;102353.66;5065021;28;20021;-82
2023/10/06 03:53:48;;;;;;;10.25;5.50;;;;;;;11.14;100.00;102355.44;5065913;28;20025;-81
2023/10/06 03:56:16;;;;;;;;;;;;;;;11.25;100.00;102347.84;5054411;28;20044;-82
2023/10/06 03:58:45;;;;;;;16.00;6.40;;;;;;;11.15;100.00;102341.34;5070649;28;20611;-81
2023/10/06 04:01:14;;;;;;;9.43;5.90;;;;;;;11.12;100.00;102338.00;5052424;28;20059;-82
2023/10/06 04:03:39;;;;;;;12.02;5.55;;;;;;;11.11;100.00;102334.53;5052611;28;20139;-81
2023/10/06 04:06:05;;;;;;;9.68;5.45;;;;;;;11.11;100.00;102331.03;5050934;28;20028;-82
2023/10/06 04:08:30;;;;;;;12.10;6.50;;;;;;;11.12;100.00;102327.47;5050832;28;20024;-82
2023/10/06 04:10:58;;;;;;;10.15;5.68;;;;;;;11.11;100.00;102326.63;5047596;28;20505;-81
2023/10/06 04:13:25;;;;;;;11.13;5.78;;;;;;;11.09;100.00;102328.50;5030166;28;20033;-81
2023/10/06 04:15:52;;;;;;;11.38;5.88;;;;;;;11.09;100.00;102320.59;5032306;28;20385;-81
2023/10/06 04:18:21;;;;;;;10.52;5.95;;;;;;;11.08;100.00;102329.41;5053116;28;20032;-80
2023/10/06 04:20:47;;;;;;;7.70;5.40;;;;;;;11.08;100.00;102318.88;5069195;28;20697;-82
2023/10/06 04:23:14;;;;;;;10.98;5.78;;;;;;;11.07;100.00;102327.72;5072044;28;20023;-81
2023/10/06 04:25:43;;;;;;;10.50;5.68;;;;;;;11.05;100.00;102334.84;5061731;28;20476;-81
2023/10/06 04:28:14;;;;;;;12.75;5.57;;;;;;;11.04;100.00;102342.84;5057887;28;20025;-81
2023/10/06 04:30:44;;;;;;;9.48;5.50;;;;;;;11.02;100.00;102340.28;5034377;28;20032;-81
2023/10/06 04:33:11;;;;;;;10.32;5.85;;;;;;;11.00;100.00;102344.78;5031013;28;20025;-82
2023/10/06 04:35:59;;;;;;;12.05;5.60;;;;;;;10.93;100.00;102346.88;5053291;28;20123;-81
2023/10/06 04:38:29;;;;;;;10.80;5.30;;;;;;;10.98;100.00;102344.00;5059229;28;20409;-82
2023/10/06 04:40:57;;;;;;;11.13;5.80;;;;;;;10.96;100.00;102335.34;5070851;28;20024;-81
2023/10/06 04:43:23;;;;;;;8.52;5.43;;;;;;;10.94;100.00;102334.56;5055585;28;20211;-80
2023/10/06 04:45:50;;;;;;;9.85;5.68;;;;;;;10.94;100.00;102331.94;5050083;28;20021;-81
2023/10/06 04:48:15;;;;;;;9.27;5.70;;;;;;;10.91;100.00;102322.41;5035358;28;20537;-80
2023/10/06 04:50:44;;;;;;;10.05;5.55;;;;;;;10.89;100.00;102319.00;5034050;28;20033;-81
2023/10/06 04:53:11;;;;;;;10.55;5.60;;;;;;;10.91;100.00;102321.56;5049977;28;20029;-82
2023/10/06 04:55:38;;;;;;;12.38;5.95;;;;;;;10.88;100.00;102321.72;5050524;28;20106;-80
2023/10/06 04:58:13;;;;;;;12.02;5.55;;;;;;;10.87;100.00;102318.22;5050582;28;20025;-80
2023/10/06 05:00:42;;;;;;;10.65;5.22;;;;;;;10.87;100.00;102317.38;5050632;28;20105;-80
2023/10/06 05:03:10;;;;;;;12.07;5.55;;;;;;;10.85;100.00;102311.34;5032640;28;20025;-81
2023/10/06 05:05:38;;;;;;;11.77;5.53;;;;;;;10.85;100.00;102320.09;5029847;28;20026;-81
2023/10/06 05:08:04;;;;;;;9.30;5.25;;;;;;;10.83;100.00;102314.06;5032606;28;20084;-80
2023/10/06 05:10:31;;;;;;;11.48;5.47;;;;;;;10.85;100.00;102317.47;5034494;28;20087;-81
2023/10/06 05:12:58;;;;;;;10.63;5.15;;;;;;;10.85;100.00;102317.47;5057504;28;20038;-81
2023/10/06 05:15:24;;;;;;;12.48;5.65;;;;;;;10.84;100.00;102309.66;5054749;28;20406;-81
2023/10/06 05:18:18;;;;;;;12.05;5.22;;;;;;;10.92;100.00;102318.84;5071154;28;20099;-81
2023/10/06 05:20:44;;;;;;;11.02;5.03;;;;;;;10.87;100.00;102309.47;5060110;28;20037;-80
2023/10/06 05:23:09;;;;;;;10.05;4.97;;;;;;;10.88;100.00;102306.78;5049648;28;20021;-81
2023/10/06 05:25:41;;;;;;;12.65;5.63;;;;;;;10.88;100.00;102311.19;5065993;28;20028;-80
2023/10/06 05:28:16;;;;;;;12.68;5.68;;;;;;;10.89;100.00;102323.41;5071155;28;20044;-82
2023/10/06 05:30:43;;;;;;;11.30;5.40;;;;;;;10.89;100.00;102320.78;5037934;28;20468;-80
2023/10/06 05:33:09;;;;;;;13.48;5.38;;;;;;;10.90;100.00;102319.84;5039572;28;20101;-82
2023/10/06 05:35:39;;;;;;;11.13;4.78;;;;;;;10.89;100.00;102318.16;5049889;28;20481;-81
2023/10/06 05:38:13;;;;;;;11.98;5.25;;;;;;;10.89;100.00;102316.38;5049229;28;20117;-80
2023/10/06 05:40:40;;;;;;;11.18;5.20;;;;;;;10.88;100.00;102319.94;5050598;28;20020;-82
2023/10/06 05:43:06;;;;;;;12.88;5.07;;;;;;;10.88;100.00;102313.81;5050319;28;20380;-81
2023/10/06 05:45:35;;;;;;;8.02;4.95;;;;;;;10.89;100.00;102318.16;5060719;28;20047;-81
2023/10/06 05:48:06;;;;;;;10.05;5.15;;;;;;;10.87;100.00;102314.75;5059631;28;20416;-82
2023/10/06 05:50:35;;;;;;;8.35;4.68;;;;;;;10.86;100.00;102313.06;5050696;28;20401;-81
2023/10/06 05:53:04;;;;;;;11.23;5.00;;;;;;;10.87;100.00;102320.00;5043241;28;20464;-81
2023/10/06 05:55:30;;;;;;;10.70;5.10;;;;;;;10.86;100.00;102315.69;5056467;28;20061;-81
2023/10/06 05:57:56;;;;;;;6.75;4.68;;;;;;;10.89;100.00;102320.78;5049254;28;20061;-81
2023/10/06 06:00:27;;;;;;;10.25;4.75;;;;;;;10.88;100.00;102327.84;5048783;28;20036;-81
2023/10/06 06:02:53;;;;;;;9.32;4.50;;;;;;;10.90;100.00;102319.84;5049012;28;20023;-81
2023/10/06 06:05:18;;;;;;;10.38;5.20;;;;;;;10.90;100.00;102319.84;5047713;28;20048;-81
2023/10/06 06:07:44;;;;;;;12.07;4.55;;;;;;;10.91;100.00;102321.56;5039345;28;20064;-81
2023/10/06 06:10:13;;;;;;;11.07;4.75;;;;;;;10.94;100.00;102321.41;5047867;28;20049;-81
2023/10/06 06:12:42;;;;;;;8.70;4.95;;;;;;;10.93;100.00;102319.69;5045691;28;20478;-81
2023/10/06 06:15:08;;;;;;;8.15;4.90;;;;;;;10.97;100.00;102326.50;5028426;28;20025;-81
2023/10/06 06:17:35;;;;;;;9.63;4.97;;;;;;;11.01;100.00;102328.03;5029716;28;20040;-81
2023/10/06 06:20:02;;;;;;;9.30;4.97;;;;;;;11.02;100.00;102323.63;5032573;28;20020;-81
2023/10/06 06:22:29;;;;;;;10.07;4.80;;;;;;;11.06;100.00;102325.16;5056736;28;20086;-81
2023/10/06 06:24:55;;;;;;;11.32;5.22;;;;;;;11.10;100.00;102321.44;5055195;28;20098;-81
2023/10/06 06:27:24;;;;;;;11.23;4.80;;;;;;;11.15;100.00;102324.69;5051448;28;20028;-81
2023/10/06 06:29:50;;;;;;;12.35;5.53;;;;;;;11.17;100.00;102338.63;5046508;28;20113;-81
2023/10/06 06:32:17;;;;;;;9.40;5.05;;;;;;;11.19;100.00;102332.34;5045381;28;20521;-81
2023/10/06 06:34:42;;;;;;;12.25;5.35;;;;;;;11.22;100.00;102331.34;5043901;28;20024;-81
2023/10/06 06:37:12;;;;;;;9.55;4.93;;;;;;;11.27;100.00;102332.81;5069821;28;20107;-82
2023/10/06 06:39:42;;;;;;;9.70;4.88;;;;;;;11.25;100.00;102337.31;5068040;28;20059;-81
2023/10/06 06:42:08;;;;;;;13.57;5.68;;;;;;;11.29;100.00;102332.72;5066091;28;20035;-81
2023/10/06 06:44:34;;;;;;;9.88;4.88;;;;;;;11.30;100.00;102340.53;5063913;28;20021;-81
2023/10/06 06:47:00;;;;;;;10.75;5.32;;;;;;;11.35;100.00;102339.44;5058897;28;20028;-82
2023/10/06 06:49:26;;;;;;;12.07;5.22;;;;;;;11.38;100.00;102336.66;5066334;28;20048;-81
2023/10/06 06:51:53;;;;;;;8.57;4.90;;;;;;;11.41;100.00;102336.47;5043787;28;20025;-81
2023/10/06 06:54:19;;;;;;;9.43;4.93;;;;;;;11.43;100.00;102345.16;5053412;28;20045;-81
2023/10/06 06:56:47;;;;;;;13.98;5.00;;;;;;;11.46;100.00;102334.44;5053431;28;20489;-82
2023/10/06 06:59:12;;;;;;;7.28;4.82;;;;;;;11.51;100.00;102337.69;5067109;28;20039;-81
2023/10/06 07:01:38;;;;;;;10.90;4.75;;;;;;;11.54;100.00;102332.25;5050898;28;20017;-82
2023/10/06 07:04:06;;;;;;;9.75;4.90;;;;;;;11.53;100.00;102336.66;5051896;28;20107;-81
2023/10/06 07:06:31;;;;;;;11.02;5.25;;;;;;;11.55;100.00;102337.44;5053057;28;20032;-82
2023/10/06 07:08:57;;;;;;;9.27;4.80;;;;;;;11.58;100.00;102333.78;5045987;28;20087;-81
2023/10/06 07:11:22;;;;;;;9.88;5.07;;;;;;;11.62;100.00;102332.69;5052483;28;20043;-79
2023/10/06 07:13:48;;;;;;;10.85;4.90;;;;;;;11.65;100.00;102332.53;5062200;28;20025;-83
2023/10/06 07:16:14;;;;;;;12.00;5.38;;;;;;;11.66;100.00;102326.31;5060817;28;20040;-83
2023/10/06 07:18:40;;;;;;;14.27;4.97;;;;;;;11.70;100.00;102333.13;5051542;28;20428;-83
2023/10/06 07:21:09;;;;;;;11.40;5.80;;;;;;;11.70;100.00;102338.41;5053046;28;20021;-82
2023/10/06 07:23:37;;;;;;;11.45;4.75;;;;;;;11.76;100.00;102331.94;5051907;28;20126;-83
2023/10/06 07:26:11;;;;;;;11.35;5.18;;;;;;;11.80;100.00;102329.06;5070027;28;20016;-83
2023/10/06 07:28:39;;;;;;;11.35;4.80;;;;;;;11.87;100.00;102332.22;5048288;28;20477;-83
2023/10/06 07:31:12;;;;;;;9.77;4.82;;;;;;;11.95;100.00;102322.09;5069520;28;20016;-81
2023/10/06 07:33:43;;;;;;;11.25;5.63;;;;;;;12.01;100.00;102326.16;5062345;28;20040;-81
2023/10/06 07:36:13;;;;;;;10.52;4.97;;;;;;;12.05;100.00;102328.56;5043002;28;20025;-81
2023/10/06 07:38:40;;;;;;;11.02;5.22;;;;;;;12.13;100.00;102333.41;5054970;28;20036;-82
2023/10/06 07:41:06;;;;;;;12.38;5.13;;;;;;;12.19;100.00;102330.41;5052385;28;20347;-82
2023/10/06 07:43:31;;;;;;;10.70;4.95;;;;;;;12.27;100.00;102333.47;5052788;28;20079;-81
2023/10/06 07:45:58;;;;;;;11.10;5.13;;;;;;;12.33;100.00;102341.03;5051128;28;20032;-82
2023/10/06 07:48:23;;;;;;;16.52;5.30;;;;;;;12.39;100.00;102348.56;5051651;28;20025;-82
2023/10/06 07:50:49;;;;;;;12.23;5.28;;;;;;;12.48;100.00;102347.22;5051585;28;20029;-82
2023/10/06 07:53:14;;;;;;;12.60;5.50;;;;;;;12.60;100.00;102350.94;5051872;28;20143;-82
2023/10/06 07:55:40;;;;;;;12.00;5.03;;;;;;;12.68;100.00;102362.75;5053088;28;20060;-82
2023/10/06 07:58:08;;;;;;;11.00;5.05;;;;;;;12.80;100.00;102355.88;5050053;28;20025;-82
2023/10/06 08:00:38;;;;;;;11.55;5.03;;;;;;;12.92;100.00;102373.66;5061595;28;20480;-81
2023/10/06 08:03:04;;;;;;;10.38;5.18;;;;;;;13.05;100.00;102364.06;5066189;28;20020;-82
2023/10/06 08:05:29;;;;;;;12.85;5.53;;;;;;;13.17;100.00;102368.63;5052475;28;20036;-83
2023/10/06 08:07:57;;;;;;;10.68;5.20;;;;;;;13.27;100.00;102354.88;5056763;28;20028;-82
2023/10/06 08:10:23;;;;;;;10.57;5.10;;;;;;;13.42;100.00;102348.63;5052077;28;20075;-82
2023/10/06 08:12:56;;;;;;;12.68;5.10;;;;;;;13.54;100.00;102354.94;5052328;28;20025;-82
2023/10/06 08:15:22;;;;;;;12.25;5.30;;;;;;;13.65;100.00;102347.22;5052337;28;20029;-82
2023/10/06 08:17:55;;;;;;;11.38;5.20;;;;;;;13.79;100.00;102350.69;5050574;28;20500;-81
2023/10/06 08:20:21;;;;;;;9.10;4.75;;;;;;;13.95;99.40;102350.53;5049844;28;20036;-82
2023/10/06 08:22:49;;;;;;;13.63;5.50;;;;;;;14.15;99.15;102351.06;5052243;28;20033;-82
2023/10/06 08:25:18;;;;;;;15.63;5.60;;;;;;;14.38;98.78;102358.34;5045076;28;20029;-82
2023/10/06 08:27:45;;;;;;;9.02;4.30;;;;;;;14.58;98.64;102349.97;5047702;28;20045;-83
2023/10/06 08:30:16;;;;;;;10.63;4.85;;;;;;;14.77;97.85;102359.31;5051807;28;20057;-82
2023/10/06 08:32:46;;;;;;;12.88;4.85;;;;;;;14.91;96.16;102354.81;5049505;28;20451;-82
2023/10/06 08:35:15;;;;;;;11.02;4.75;;;;;;;14.99;95.63;102355.13;5052029;28;21034;-82
2023/10/06 08:37:47;;;;;;;10.95;5.00;;;;;;;15.05;95.62;102356.50;5055754;28;20032;-79
2023/10/06 08:40:19;;;;;;;12.32;5.05;;;;;;;15.17;95.63;102354.78;5057803;28;20063;-83
2023/10/06 08:42:59;;;;;;;14.25;5.13;;;;;;;15.35;95.22;102350.88;5061589;28;20032;-83
2023/10/06 08:45:27;;;;;;;13.82;4.95;;;;;;;15.49;92.88;102356.06;5055432;28;20032;-82
2023/10/06 08:48:09;;;;;;;9.63;4.72;;;;;;;15.58;92.74;102355.44;5068013;28;20021;-82
2023/10/06 08:50:35;;;;;;;15.50;5.43;;;;;;;15.78;91.80;102355.84;5068847;28;20024;-83
2023/10/06 08:53:04;;;;;;;12.20;4.43;;;;;;;15.92;92.46;102353.88;5053605;28;20025;-82
2023/10/06 08:55:29;;;;;;;11.82;4.60;;;;;;;15.99;90.15;102356.91;5055729;28;20057;-82
2023/10/06 08:57:58;;;;;;;11.75;4.82;;;;;;;16.19;91.02;102348.34;5058249;28;20021;-82
2023/10/06 09:00:24;;;;;;;10.70;4.72;;;;;;;16.28;89.86;102347.66;5054286;28;20465;-82
2023/10/06 09:02:54;;;;;;;7.50;4.22;;;;;;;16.23;89.69;102355.13;5065499;28;20017;-82
2023/10/06 09:05:23;;;;;;;12.45;4.75;;;;;;;16.19;88.87;102358.13;5057962;28;20115;-82
2023/10/06 09:07:59;;;;;;;10.65;4.82;;;;;;;16.12;90.24;102362.22;5057147;28;20503;-82
2023/10/06 09:10:26;;;;;;;9.25;4.53;;;;;;;16.19;90.79;102372.25;5049675;28;20045;-82
2023/10/06 09:13:02;;;;;;;12.45;4.80;;;;;;;16.32;90.87;102363.38;5050546;28;20096;-83
2023/10/06 09:15:28;;;;;;;11.95;5.00;;;;;;;16.36;90.15;102359.53;5058912;28;20048;-81
2023/10/06 09:17:54;;;;;;;12.60;5.18;;;;;;;16.49;89.20;102361.19;5052311;28;20021;-83
2023/10/06 09:20:31;;;;;;;17.35;5.13;;;;;;;16.64;90.13;102359.16;5048952;28;20032;-82
2023/10/06 09:22:58;;;;;;;12.75;4.78;;;;;;;16.63;89.43;102354.81;5048654;28;20078;-82
2023/10/06 09:25:24;;;;;;;10.30;5.05;;;;;;;16.73;88.21;102345.22;5051562;28;20036;-82
2023/10/06 09:28:04;;;;;;;8.40;4.32;;;;;;;16.90;88.74;102334.16;5048353;28;20432;-82
2023/10/06 09:30:30;;;;;;;13.30;4.35;;;;;;;17.25;86.36;102335.88;5046511;28;20519;-82
2023/10/06 09:33:02;;;;;;;10.80;4.95;;;;;;;17.55;86.82;102336.09;5055895;28;20374;-82
2023/10/06 09:35:28;;;;;;;8.93;4.53;;;;;;;18.10;82.84;102329.03;5052577;28;20033;-84
2023/10/06 09:38:09;;;;;;;10.50;4.03;;;;;;;18.32;83.36;102325.41;5050206;28;20047;-83
2023/10/06 09:40:44;;;;;;;13.00;4.50;;;;;;;18.52;81.52;102325.59;5052773;28;20066;-83
2023/10/06 09:43:17;;;;;;;11.55;4.10;;;;;;;18.50;79.49;102323.06;5046324;28;20017;-83
2023/10/06 09:45:43;;;;;;;8.93;3.60;;;;;;;18.50;80.45;102327.53;5046850;28;20116;-83
2023/10/06 09:48:14;;;;;;;10.48;3.78;;;;;;;18.54;79.12;102323.63;5041994;28;20608;-83
2023/10/06 09:50:42;;;;;;;10.43;3.92;;;;;;;18.92;77.87;102323.09;5043905;28;20036;-83
2023/10/06 09:53:12;;;;;;;11.32;4.03;;;;;;;19.36;76.30;102322.75;5037989;28;20021;-84
2023/10/06 09:55:40;;;;;;;12.00;3.90;;;;;;;19.91;73.49;102323.19;5049461;28;20057;-83
2023/10/06 09:58:06;;;;;;;10.90;3.65;;;;;;;20.00;74.29;102317.00;5058527;28;20021;-83
2023/10/06 10:00:35;;;;;;;8.57;3.65;;;;;;;19.79;72.81;102316.28;5049551;28;20384;-83
2023/10/06 10:03:00;;;;;;;9.82;3.90;;;;;;;19.39;74.17;102322.47;5048613;28;20111;-83
2023/10/06 10:05:26;;;;;;;10.77;3.80;;;;;;;18.95;75.24;102322.81;5043565;28;20112;-84
2023/10/06 10:07:54;;;;;;;9.05;3.35;;;;;;;18.64;78.85;102325.44;5043313;28;20107;-84
2023/10/06 10:10:22;;;;;;;13.15;3.88;;;;;;;18.38;79.02;102324.06;5047616;28;20025;-83
2023/10/06 10:13:19;;;;;;;8.48;3.40;;;;;;;18.25;81.26;102318.06;5053364;28;20043;-83
2023/10/06 10:15:51;;;;;;;9.38;3.42;;;;;;;17.89;81.67;102320.13;5037440;28;20021;-83
2023/10/06 10:18:33;;;;;;;8.60;3.53;;;;;;;17.85;82.54;102324.00;5046079;28;20032;-83
2023/10/06 10:20:59;;;;;;;11.32;3.53;;;;;;;17.77;82.87;102311.31;5049341;28;20682;-83
2023/10/06 10:23:29;;;;;;;10.95;3.85;;;;;;;17.74;83.19;102324.03;5048857;28;20100;-82
2023/10/06 10:26:18;;;;;;;10.30;3.97;;;;;;;17.78;82.71;102320.16;5048741;28;20017;-83
2023/10/06 10:29:03;;;;;;;12.75;3.65;;;;;;;17.73;82.28;102306.38;5046917;28;20108;-81
2023/10/06 10:31:36;;;;;;;10.15;3.42;;;;;;;17.83;83.90;102312.63;5043077;28;20086;-82
2023/10/06 10:34:02;;;;;;;9.23;3.85;;;;;;;17.83;84.11;102305.50;5045306;28;20036;-82
2023/10/06 10:36:27;;;;;;;9.25;4.30;;;;;;;17.70;83.04;102310.13;5049611;28;20079;-82
2023/10/06 10:39:01;;;;;;;12.68;4.93;;;;;;;17.54;83.95;102313.13;5050623;28;20438;-82
2023/10/06 10:41:30;;;;;;;10.82;3.85;;;;;;;17.51;84.88;102312.53;5057463;28;20068;-82
2023/10/06 10:44:01;;;;;;;10.15;4.30;;;;;;;17.41;84.76;102312.41;5047961;28;20016;-82
2023/10/06 10:46:40;;;;;;;11.73;5.38;;;;;;;17.45;84.26;102297.91;5047619;28;20035;-82
2023/10/06 10:49:09;;;;;;;12.23;4.38;;;;;;;17.54;84.45;102299.81;5064386;28;20052;-82
2023/10/06 10:51:55;;;;;;;11.75;4.10;;;;;;;17.70;84.28;102302.13;5047946;28;20117;-82
2023/10/06 10:54:22;;;;;;;11.57;5.15;;;;;;;17.71;83.91;102287.00;5047083;28;20076;-83
2023/10/06 10:56:51;;;;;;;12.88;4.70;;;;;;;17.85;83.35;102294.72;5043561;28;20029;-81
2023/10/06 10:59:17;;;;;;;9.35;4.43;;;;;;;17.89;82.98;102293.47;5046742;28;20590;-83
2023/10/06 11:01:44;;;;;;;9.93;4.47;;;;;;;17.96;82.34;102297.34;5040340;28;20393;-82
2023/10/06 11:04:18;;;;;;;13.38;4.85;;;;;;;17.98;81.74;102295.38;5045113;28;20092;-83
2023/10/06 11:06:46;;;;;;;11.65;4.50;;;;;;;18.05;81.44;102296.59;5048365;28;20025;-82
2023/10/06 11:09:25;;;;;;;9.65;4.13;;;;;;;18.06;81.19;102308.94;5050413;28;20259;-82
2023/10/06 11:11:51;;;;;;;9.07;4.07;;;;;;;18.03;81.21;102309.19;5047532;28;20485;-81
2023/10/06 11:14:16;;;;;;;14.90;4.63;;;;;;;17.98;81.58;102311.38;5047573;28;20029;-81
2023/10/06 11:16:46;;;;;;;8.13;3.67;;;;;;;18.00;82.27;102306.75;5039604;28;20036;-82
2023/10/06 11:19:15;;;;;;;8.77;4.40;;;;;;;18.07;81.86;102299.97;5058313;28;20036;-81
2023/10/06 11:21:44;;;;;;;10.05;3.97;;;;;;;18.06;82.62;102292.13;5057945;28;20024;-79
2023/10/06 11:24:10;;;;;;;11.23;4.32;;;;;;;18.11;82.70;102292.59;5048238;28;20116;-79
2023/10/06 11:26:36;;;;;;;9.07;3.92;;;;;;;18.13;82.86;102299.47;5049189;28;20029;-80
2023/10/06 11:29:02;;;;;;;10.98;4.07;;;;;;;18.20;83.13;102296.28;5047410;28;20033;-77